Time;durP1;ratioP1;P1;durP2;ratioP2;P2;SDS_P1;SDS_P2;PMS_P1;PMS_P2;Temp;Humidity;BMP_temperature;BMP_pressure;BME280_temperature;BME280_humidity;BME280_pressure;Samples;Min_cycle;Max_cycle;Signal;HPM_P1;HPM_P2
2023/06/08 00:00:19;;;;;;;15.70;14.07;;;19.00;99.90;;;;;;5032058;28;20035;-58
2023/06/08 00:03:06;;;;;;;14.35;13.02;;;19.00;99.90;;;;;;5030669;28;20025;-56
2023/06/08 00:05:52;;;;;;;14.68;13.32;;;19.00;99.90;;;;;;5031596;28;20113;-56
2023/06/08 00:08:38;;;;;;;14.00;12.70;;;19.10;99.90;;;;;;5014928;28;20038;-57
2023/06/08 00:11:25;;;;;;;15.25;13.75;;;19.10;99.90;;;;;;5012559;28;20038;-57
2023/06/08 00:14:11;;;;;;;13.57;12.32;;;19.10;99.90;;;;;;5012491;28;20029;-56
2023/06/08 00:16:57;;;;;;;13.65;11.18;;;19.10;99.90;;;;;;5017847;28;20516;-56
2023/06/08 00:19:43;;;;;;;13.15;11.93;;;19.10;99.90;;;;;;5029880;28;20034;-54
2023/06/08 00:22:36;;;;;;;14.02;12.63;;;19.20;99.90;;;;;;5016563;28;20041;-56
2023/06/08 00:25:22;;;;;;;13.35;11.55;;;19.20;99.90;;;;;;5030260;28;20033;-57
2023/06/08 00:28:08;;;;;;;12.73;11.40;;;19.20;99.90;;;;;;5031559;28;20033;-56
2023/06/08 00:30:54;;;;;;;13.25;11.48;;;19.20;99.90;;;;;;5032081;28;20568;-57
2023/06/08 00:33:40;;;;;;;11.82;10.73;;;19.20;99.90;;;;;;5015672;28;20084;-56
2023/06/08 00:36:26;;;;;;;16.73;12.55;;;19.20;99.90;;;;;;5014119;28;20113;-56
2023/06/08 00:39:12;;;;;;;13.40;12.20;;;19.20;99.90;;;;;;5015183;28;20030;-52
2023/06/08 00:41:58;;;;;;;15.38;11.95;;;19.20;99.90;;;;;;5023209;28;20048;-56
2023/06/08 00:44:44;;;;;;;14.70;13.13;;;19.20;99.90;;;;;;5013012;28;20022;-53
2023/06/08 00:47:30;;;;;;;15.70;12.93;;;19.20;99.90;;;;;;5011758;28;20030;-55
2023/06/08 00:50:16;;;;;;;13.93;12.32;;;19.20;99.90;;;;;;5017726;28;20053;-56
2023/06/08 00:53:02;;;;;;;14.95;13.38;;;19.10;99.90;;;;;;5031379;28;20038;-57
2023/06/08 00:55:52;;;;;;;14.48;12.60;;;19.10;99.90;;;;;;5017913;28;20044;-56
2023/06/08 00:58:38;;;;;;;14.88;13.02;;;19.00;99.90;;;;;;5018037;28;20044;-55
2023/06/08 01:01:25;;;;;;;16.20;13.98;;;19.00;99.90;;;;;;5034967;28;20071;-56
2023/06/08 01:04:14;;;;;;;17.05;14.77;;;19.00;99.90;;;;;;5024674;28;20419;-56
2023/06/08 01:07:25;;;;;;;16.17;13.98;;;19.00;99.90;;;;;;5014691;28;20034;-53
2023/06/08 01:10:20;;;;;;;16.48;13.50;;;19.00;99.90;;;;;;5017890;28;20033;-55
2023/06/08 01:13:21;;;;;;;16.85;14.20;;;18.90;99.90;;;;;;5019199;28;20033;-54
2023/06/08 01:16:10;;;;;;;17.15;14.70;;;18.90;99.90;;;;;;5015376;28;20046;-56
2023/06/08 01:18:59;;;;;;;15.38;13.63;;;18.90;99.90;;;;;;5018677;28;20079;-56
2023/06/08 01:22:20;;;;;;;19.85;14.65;;;18.90;99.90;;;;;;5022281;28;20124;-53
2023/06/08 01:25:08;;;;;;;14.70;13.20;;;19.00;99.90;;;;;;5020434;28;20017;-55
2023/06/08 01:28:15;;;;;;;17.45;13.80;;;19.00;99.90;;;;;;5023153;28;20085;-55
2023/06/08 01:31:02;;;;;;;16.77;15.07;;;19.10;99.90;;;;;;5014607;28;20033;-54
2023/06/08 01:33:49;;;;;;;16.80;14.45;;;19.10;99.90;;;;;;5015160;28;20040;-56
2023/06/08 01:37:05;;;;;;;16.83;15.25;;;19.00;99.90;;;;;;5020207;28;20033;-52
2023/06/08 01:39:55;;;;;;;17.20;15.50;;;19.00;99.90;;;;;;5035498;28;20495;-55
2023/06/08 01:42:46;;;;;;;16.05;14.52;;;19.00;99.90;;;;;;5033659;28;20414;-51
2023/06/08 01:45:39;;;;;;;15.13;13.63;;;18.90;99.90;;;;;;5034263;28;20526;-57
2023/06/08 01:48:27;;;;;;;16.95;15.13;;;18.90;99.90;;;;;;5034266;28;20072;-56
2023/06/08 01:51:14;;;;;;;19.05;17.10;;;18.90;99.90;;;;;;5033551;28;20156;-56
2023/06/08 01:54:06;;;;;;;17.10;15.50;;;18.80;99.90;;;;;;5033170;28;20026;-55
2023/06/08 01:56:52;;;;;;;19.05;17.17;;;18.80;99.90;;;;;;5014492;28;20494;-54
2023/06/08 01:59:38;;;;;;;20.48;16.48;;;18.80;99.90;;;;;;5015173;28;20108;-55
2023/06/08 02:02:24;;;;;;;19.98;15.07;;;18.70;99.90;;;;;;5016477;28;20031;-57
2023/06/08 02:05:11;;;;;;;18.58;16.88;;;18.70;99.90;;;;;;5016440;28;20033;-57
2023/06/08 02:07:57;;;;;;;17.65;15.95;;;18.70;99.90;;;;;;5034532;28;20037;-57
2023/06/08 02:10:43;;;;;;;20.15;18.15;;;18.70;99.90;;;;;;5032753;28;20112;-55
2023/06/08 02:13:30;;;;;;;19.63;16.30;;;18.70;99.90;;;;;;5033813;28;20030;-56
2023/06/08 02:16:18;;;;;;;18.25;16.38;;;18.80;99.90;;;;;;5033834;28;20030;-55
2023/06/08 02:19:04;;;;;;;18.70;16.85;;;18.80;99.90;;;;;;5032329;28;20034;-53
2023/06/08 02:21:50;;;;;;;19.63;17.83;;;18.70;99.90;;;;;;5021219;28;20418;-51
2023/06/08 02:24:36;;;;;;;19.30;17.30;;;18.70;99.90;;;;;;5017897;28;20026;-56
2023/06/08 02:27:22;;;;;;;17.65;16.00;;;18.70;99.90;;;;;;5017740;28;20087;-56
2023/06/08 02:30:09;;;;;;;19.35;17.27;;;18.60;99.90;;;;;;5033521;28;20502;-52
2023/06/08 02:32:55;;;;;;;18.88;17.02;;;18.60;99.90;;;;;;5033641;28;20109;-54
2023/06/08 02:35:41;;;;;;;19.33;17.40;;;18.50;99.90;;;;;;5029830;28;20031;-54
2023/06/08 02:38:27;;;;;;;20.20;18.27;;;18.60;99.90;;;;;;5015547;28;20022;-55
2023/06/08 02:41:13;;;;;;;21.58;19.30;;;18.60;99.90;;;;;;5014587;28;20030;-53
2023/06/08 02:43:59;;;;;;;20.70;18.70;;;18.50;99.90;;;;;;5013456;28;20117;-55
2023/06/08 02:46:46;;;;;;;22.05;19.75;;;18.50;99.90;;;;;;5012648;28;20030;-57
2023/06/08 02:49:31;;;;;;;21.77;19.45;;;18.60;99.90;;;;;;5014431;28;20526;-52
2023/06/08 02:52:17;;;;;;;22.63;20.42;;;18.50;99.90;;;;;;5015783;28;20029;-52
2023/06/08 02:55:04;;;;;;;21.48;19.27;;;18.50;99.90;;;;;;5014138;28;20033;-53
2023/06/08 02:57:50;;;;;;;20.25;18.50;;;18.60;99.90;;;;;;5031784;28;20128;-54
2023/06/08 03:00:36;;;;;;;20.08;18.27;;;18.40;99.90;;;;;;5013862;28;20030;-54
2023/06/08 03:03:23;;;;;;;21.77;19.80;;;18.30;99.90;;;;;;5012860;28;20018;-56
2023/06/08 03:06:09;;;;;;;21.15;19.35;;;18.30;99.90;;;;;;5023708;28;20034;-56
2023/06/08 03:08:55;;;;;;;23.27;20.83;;;18.30;99.90;;;;;;5013560;28;20076;-57
2023/06/08 03:11:41;;;;;;;22.67;20.58;;;18.30;99.90;;;;;;5013182;28;20044;-56
2023/06/08 03:14:30;;;;;;;23.17;20.38;;;18.20;99.90;;;;;;5021571;28;20042;-56
2023/06/08 03:17:17;;;;;;;21.13;19.02;;;18.30;99.90;;;;;;5012302;28;20030;-56
2023/06/08 03:20:05;;;;;;;22.40;20.30;;;18.30;99.90;;;;;;5025355;28;20034;-55
2023/06/08 03:22:52;;;;;;;22.58;20.17;;;18.40;99.90;;;;;;5023891;28;20025;-56
2023/06/08 03:25:38;;;;;;;21.40;19.50;;;18.30;99.90;;;;;;5033393;28;20022;-55
2023/06/08 03:28:24;;;;;;;23.60;21.45;;;18.30;99.90;;;;;;5034122;28;20076;-56
2023/06/08 03:31:11;;;;;;;23.27;21.15;;;18.40;99.90;;;;;;5013200;28;20033;-53
2023/06/08 03:33:57;;;;;;;22.67;20.52;;;18.40;99.90;;;;;;5024112;28;20033;-51
2023/06/08 03:36:43;;;;;;;25.90;21.60;;;18.20;99.90;;;;;;5030860;28;20047;-51
2023/06/08 03:39:29;;;;;;;23.85;21.52;;;18.00;99.90;;;;;;5031007;28;20117;-55
2023/06/08 03:42:15;;;;;;;23.33;21.23;;;17.90;99.90;;;;;;5031108;28;20112;-52
2023/06/08 03:45:01;;;;;;;23.67;21.58;;;18.00;99.90;;;;;;5031034;28;20044;-56
2023/06/08 03:47:47;;;;;;;24.02;21.90;;;18.00;99.90;;;;;;5023022;28;20522;-54
2023/06/08 03:50:33;;;;;;;22.80;20.75;;;18.00;99.90;;;;;;5017413;28;20034;-55
2023/06/08 03:53:19;;;;;;;23.70;21.40;;;18.00;99.90;;;;;;5032409;28;20167;-55
2023/06/08 03:56:05;;;;;;;23.65;21.35;;;17.90;99.90;;;;;;5034235;28;20037;-55
2023/06/08 03:58:51;;;;;;;24.08;21.67;;;18.00;99.90;;;;;;5032247;28;20383;-54
2023/06/08 04:01:41;;;;;;;22.70;20.50;;;18.00;99.90;;;;;;5026082;28;20380;-54
2023/06/08 04:04:29;;;;;;;24.15;21.23;;;18.00;99.90;;;;;;5011666;28;20026;-55
2023/06/08 04:07:16;;;;;;;24.38;21.05;;;18.00;99.90;;;;;;5022418;28;20653;-56
2023/06/08 04:10:02;;;;;;;24.55;22.30;;;18.00;99.90;;;;;;5024376;28;20044;-55
2023/06/08 04:12:48;;;;;;;22.65;20.45;;;18.00;99.90;;;;;;5019695;28;20037;-55
2023/06/08 04:15:34;;;;;;;23.00;20.88;;;17.90;99.90;;;;;;5024287;28;20503;-52
2023/06/08 04:18:21;;;;;;;23.90;20.60;;;17.90;99.90;;;;;;5027178;28;20506;-56
2023/06/08 04:21:07;;;;;;;22.83;20.83;;;17.90;99.90;;;;;;5029117;28;20494;-53
2023/06/08 04:23:53;;;;;;;22.58;20.27;;;17.90;99.90;;;;;;5030237;28;20494;-59
2023/06/08 04:26:40;;;;;;;22.25;20.02;;;17.90;99.90;;;;;;5028492;28;20037;-49
2023/06/08 04:29:26;;;;;;;21.50;19.23;;;18.00;99.90;;;;;;5029710;28;20502;-51
2023/06/08 04:32:12;;;;;;;21.92;19.83;;;18.00;99.90;;;;;;5026954;28;20030;-51
2023/06/08 04:34:58;;;;;;;20.70;18.80;;;18.00;99.90;;;;;;5037091;28;20079;-49
2023/06/08 04:37:44;;;;;;;20.85;18.85;;;18.00;99.90;;;;;;5035531;28;20033;-54
2023/06/08 04:40:33;;;;;;;21.85;19.85;;;18.00;99.90;;;;;;5026625;28;20085;-51
2023/06/08 04:43:22;;;;;;;22.00;19.77;;;18.10;99.90;;;;;;5017491;28;20030;-54
2023/06/08 04:46:08;;;;;;;20.05;18.35;;;18.10;99.90;;;;;;5021044;28;20040;-58
2023/06/08 04:48:55;;;;;;;21.48;19.48;;;18.00;99.90;;;;;;5036042;28;20025;-54
2023/06/08 04:51:46;;;;;;;21.40;19.35;;;18.10;99.90;;;;;;5032821;28;20025;-50
2023/06/08 04:54:32;;;;;;;20.27;18.42;;;18.10;99.90;;;;;;5022976;28;20030;-51
2023/06/08 04:57:22;;;;;;;22.85;20.80;;;18.10;99.90;;;;;;5033212;28;20026;-49
2023/06/08 05:00:09;;;;;;;22.08;19.80;;;18.20;99.90;;;;;;5033155;28;20026;-50
2023/06/08 05:02:56;;;;;;;21.70;19.23;;;18.20;99.90;;;;;;5028288;28;20030;-51
2023/06/08 05:05:42;;;;;;;22.90;20.65;;;18.10;99.90;;;;;;5015467;28;20376;-52
2023/06/08 05:08:28;;;;;;;22.77;20.65;;;18.10;99.90;;;;;;5028256;28;20025;-51
2023/06/08 05:11:14;;;;;;;21.05;18.88;;;18.10;99.90;;;;;;5035377;28;20502;-54
2023/06/08 05:14:00;;;;;;;21.65;19.45;;;18.20;99.90;;;;;;5021146;28;20044;-53
2023/06/08 05:16:46;;;;;;;20.77;18.90;;;18.30;99.90;;;;;;5036086;28;20491;-53
2023/06/08 05:19:32;;;;;;;21.35;19.35;;;18.20;99.90;;;;;;5034582;28;20376;-54
2023/06/08 05:22:18;;;;;;;21.67;19.40;;;18.20;99.90;;;;;;5034857;28;20110;-49
2023/06/08 05:25:04;;;;;;;20.08;18.17;;;18.20;99.90;;;;;;5035545;28;20026;-51
2023/06/08 05:27:50;;;;;;;22.92;18.42;;;18.30;99.90;;;;;;5021165;28;20510;-52
2023/06/08 05:30:36;;;;;;;21.13;19.20;;;18.30;99.90;;;;;;5015836;28;20037;-52
2023/06/08 05:33:22;;;;;;;20.02;18.23;;;18.30;99.90;;;;;;5015642;28;20516;-50
2023/06/08 05:36:08;;;;;;;21.52;18.45;;;18.30;99.90;;;;;;5021449;28;20528;-52
2023/06/08 05:38:54;;;;;;;20.60;18.15;;;18.30;99.90;;;;;;5016002;28;20037;-54
2023/06/08 05:41:40;;;;;;;20.25;18.35;;;18.30;99.90;;;;;;5025424;28;20033;-55
2023/06/08 05:44:26;;;;;;;19.45;17.55;;;18.30;99.90;;;;;;5034946;28;20022;-55
2023/06/08 05:47:12;;;;;;;20.08;18.02;;;18.30;99.90;;;;;;5033348;28;20064;-52
2023/06/08 05:49:58;;;;;;;21.75;17.88;;;18.30;99.90;;;;;;5033514;28;20037;-51
2023/06/08 05:52:44;;;;;;;19.50;17.55;;;18.40;99.90;;;;;;5014772;28;20026;-53
2023/06/08 05:55:30;;;;;;;18.85;17.17;;;18.40;99.90;;;;;;5021484;28;20030;-53
2023/06/08 05:58:17;;;;;;;19.95;18.17;;;18.40;99.90;;;;;;5033783;28;20044;-55
2023/06/08 06:01:04;;;;;;;20.30;17.85;;;18.40;99.90;;;;;;5035056;28;20026;-55
2023/06/08 06:03:50;;;;;;;19.00;17.05;;;18.50;99.90;;;;;;5018428;28;20030;-55
2023/06/08 06:06:36;;;;;;;19.92;17.92;;;18.50;99.90;;;;;;5032937;28;20518;-51
2023/06/08 06:09:22;;;;;;;19.67;17.70;;;18.60;99.90;;;;;;5014112;28;20445;-52
2023/06/08 06:12:08;;;;;;;19.67;17.77;;;18.70;99.90;;;;;;5026727;28;20033;-53
2023/06/08 06:14:55;;;;;;;20.10;15.63;;;18.70;99.90;;;;;;5013989;28;20038;-51
2023/06/08 06:17:41;;;;;;;18.30;16.40;;;18.80;99.90;;;;;;5014638;28;20092;-52
2023/06/08 06:20:29;;;;;;;16.40;14.85;;;18.80;99.90;;;;;;5013779;28;20022;-53
2023/06/08 06:23:15;;;;;;;17.92;16.13;;;18.70;99.90;;;;;;5021596;28;20075;-54
2023/06/08 06:26:01;;;;;;;17.05;15.25;;;18.80;99.90;;;;;;5034166;28;20490;-52
2023/06/08 06:28:47;;;;;;;17.23;15.38;;;18.90;99.90;;;;;;5032204;28;20461;-54
2023/06/08 06:31:33;;;;;;;16.05;14.48;;;18.90;99.90;;;;;;5032300;28;20029;-51
2023/06/08 06:34:20;;;;;;;16.13;14.57;;;18.90;99.90;;;;;;5034792;28;20061;-51
2023/06/08 06:37:06;;;;;;;17.75;15.88;;;19.00;99.90;;;;;;5033174;28;20092;-54
2023/06/08 06:39:52;;;;;;;16.90;15.13;;;19.10;99.90;;;;;;5036275;28;20108;-52
2023/06/08 06:42:39;;;;;;;20.77;15.27;;;19.30;99.90;;;;;;5015447;28;20036;-54
2023/06/08 06:45:25;;;;;;;16.67;14.98;;;19.30;99.90;;;;;;5014858;28;20029;-51
2023/06/08 06:48:11;;;;;;;16.33;14.73;;;19.50;99.90;;;;;;5014011;28;20030;-56
2023/06/08 06:50:57;;;;;;;16.70;15.20;;;19.50;99.90;;;;;;5013929;28;20049;-52
2023/06/08 06:53:43;;;;;;;15.20;13.60;;;19.60;99.90;;;;;;5013180;28;20048;-55
2023/06/08 06:56:29;;;;;;;18.25;16.35;;;19.60;99.90;;;;;;5013946;28;20038;-54
2023/06/08 06:59:15;;;;;;;16.70;15.20;;;19.60;99.90;;;;;;5014895;28;20122;-51
2023/06/08 07:02:02;;;;;;;19.70;16.38;;;19.60;99.90;;;;;;5017526;28;20026;-55
2023/06/08 07:04:52;;;;;;;17.27;15.50;;;19.70;99.90;;;;;;5022863;28;20064;-53
2023/06/08 07:07:38;;;;;;;18.77;15.90;;;19.80;99.90;;;;;;5026449;28;20034;-53
2023/06/08 07:10:24;;;;;;;17.15;15.55;;;19.80;99.90;;;;;;5032296;28;20117;-55
2023/06/08 07:13:10;;;;;;;19.75;17.67;;;19.90;99.90;;;;;;5026532;28;20034;-55
2023/06/08 07:15:57;;;;;;;16.02;14.35;;;20.00;99.90;;;;;;5020721;28;20037;-57
2023/06/08 07:18:43;;;;;;;16.48;14.88;;;20.10;99.90;;;;;;5032855;28;20099;-57
2023/06/08 07:21:30;;;;;;;16.70;14.90;;;20.10;99.90;;;;;;5033209;28;20660;-56
2023/06/08 07:24:16;;;;;;;17.33;15.63;;;20.10;99.90;;;;;;5016697;28;20041;-57
2023/06/08 07:27:02;;;;;;;17.25;15.60;;;19.90;99.90;;;;;;5029199;28;20410;-57
2023/06/08 07:29:47;;;;;;;16.45;14.50;;;19.90;99.90;;;;;;5020401;28;20030;-57
2023/06/08 07:32:34;;;;;;;16.05;14.48;;;19.90;99.90;;;;;;5013649;28;20030;-56
2023/06/08 07:35:20;;;;;;;15.77;14.38;;;19.90;99.90;;;;;;5028596;28;20532;-54
2023/06/08 07:38:06;;;;;;;15.93;14.40;;;19.90;99.90;;;;;;5031499;28;20116;-54
2023/06/08 07:40:53;;;;;;;17.05;15.35;;;20.00;99.90;;;;;;5030823;28;20411;-57
2023/06/08 07:43:40;;;;;;;17.10;15.35;;;19.90;99.90;;;;;;5032531;28;20034;-54
2023/06/08 07:46:26;;;;;;;17.48;15.77;;;19.80;99.90;;;;;;5032144;28;20026;-56
2023/06/08 07:49:12;;;;;;;20.20;16.58;;;19.60;99.90;;;;;;5032273;28;20029;-53
2023/06/08 07:51:58;;;;;;;16.38;14.80;;;19.60;99.90;;;;;;5031810;28;20104;-56
2023/06/08 07:54:43;;;;;;;16.13;14.45;;;19.60;99.90;;;;;;5033368;28;20421;-55
2023/06/08 07:57:30;;;;;;;18.02;15.65;;;19.50;99.90;;;;;;5031869;28;20072;-56
2023/06/08 08:00:17;;;;;;;16.60;14.35;;;19.60;99.90;;;;;;5031226;28;20030;-57
2023/06/08 08:03:03;;;;;;;16.08;14.48;;;19.70;99.90;;;;;;5031672;28;20030;-56
2023/06/08 08:05:49;;;;;;;16.50;15.02;;;19.80;99.90;;;;;;5032037;28;20029;-57
2023/06/08 08:08:35;;;;;;;16.60;15.00;;;19.80;99.90;;;;;;5033273;28;20030;-56
2023/06/08 08:11:21;;;;;;;16.05;14.45;;;19.80;99.90;;;;;;5030918;28;20445;-55
2023/06/08 08:14:09;;;;;;;19.00;16.52;;;19.80;99.90;;;;;;5032369;28;20034;-54
2023/06/08 08:16:55;;;;;;;17.67;16.08;;;19.80;99.90;;;;;;5031400;28;20036;-56
2023/06/08 08:19:41;;;;;;;18.38;16.42;;;19.80;99.90;;;;;;5031985;28;20041;-57
2023/06/08 08:22:27;;;;;;;18.90;17.00;;;19.70;99.90;;;;;;5031883;28;20025;-56
2023/06/08 08:25:13;;;;;;;17.50;15.68;;;19.60;99.90;;;;;;5032181;28;20048;-56
2023/06/08 08:27:59;;;;;;;18.70;16.75;;;19.70;99.90;;;;;;5030643;28;20140;-54
2023/06/08 08:30:45;;;;;;;18.85;17.08;;;19.80;99.90;;;;;;5032021;28;20038;-57
2023/06/08 08:33:31;;;;;;;17.92;16.13;;;19.60;99.90;;;;;;5031530;28;20036;-55
2023/06/08 08:36:17;;;;;;;18.20;16.38;;;19.70;99.90;;;;;;5031796;28;20071;-55
2023/06/08 08:39:03;;;;;;;19.58;17.55;;;19.80;99.90;;;;;;5032944;28;20155;-53
2023/06/08 08:41:56;;;;;;;18.08;16.38;;;19.90;99.90;;;;;;5030263;28;20025;-56
2023/06/08 08:44:42;;;;;;;21.40;17.08;;;19.90;99.90;;;;;;5019082;28;20025;-54
2023/06/08 08:47:30;;;;;;;19.98;17.95;;;19.90;99.90;;;;;;5012501;28;20115;-53
2023/06/08 08:50:16;;;;;;;18.63;16.73;;;19.90;99.90;;;;;;5012372;28;20033;-54
2023/06/08 08:53:03;;;;;;;18.58;16.77;;;19.90;99.90;;;;;;5012785;28;20033;-54
2023/06/08 08:55:49;;;;;;;20.65;16.90;;;19.90;99.90;;;;;;5023943;28;20102;-56
2023/06/08 08:58:35;;;;;;;18.60;16.75;;;20.00;99.90;;;;;;5012523;28;20041;-57
2023/06/08 09:01:22;;;;;;;17.73;15.95;;;19.90;99.90;;;;;;5012408;28;20105;-55
2023/06/08 09:04:08;;;;;;;19.48;17.55;;;19.90;99.90;;;;;;5012499;28;20182;-57
2023/06/08 09:06:54;;;;;;;16.85;15.25;;;19.90;99.90;;;;;;5010057;28;20387;-55
2023/06/08 09:10:19;;;;;;;19.55;17.60;;;20.10;99.90;;;;;;5012631;28;20423;-56
2023/06/08 09:13:05;;;;;;;19.55;15.65;;;20.10;99.90;;;;;;5023733;28;20034;-56
2023/06/08 09:15:51;;;;;;;16.90;15.27;;;20.10;99.90;;;;;;5015429;28;20037;-53
2023/06/08 09:18:37;;;;;;;17.38;15.57;;;20.30;99.90;;;;;;5034448;28;20026;-56
2023/06/08 09:21:27;;;;;;;15.88;14.32;;;20.40;99.90;;;;;;5035519;28;20505;-51
2023/06/08 09:24:16;;;;;;;17.30;15.63;;;20.50;99.90;;;;;;5028651;28;20053;-55
2023/06/08 09:27:04;;;;;;;16.42;14.63;;;20.70;99.90;;;;;;5034438;28;20445;-55
2023/06/08 09:29:50;;;;;;;16.38;14.75;;;20.70;99.90;;;;;;5031969;28;20030;-57
2023/06/08 09:32:37;;;;;;;17.02;15.27;;;20.70;99.90;;;;;;5014934;28;20069;-57
2023/06/08 09:35:23;;;;;;;17.30;15.70;;;20.70;99.90;;;;;;5014867;28;20030;-55
2023/06/08 09:38:19;;;;;;;17.85;15.95;;;20.90;99.90;;;;;;5014495;28;20042;-57
2023/06/08 09:41:24;;;;;;;17.00;15.23;;;20.80;99.90;;;;;;5015462;28;20054;-55
2023/06/08 09:44:20;;;;;;;16.80;15.07;;;20.80;99.90;;;;;;5014784;28;20034;-53
2023/06/08 09:47:27;;;;;;;17.67;15.80;;;20.70;99.90;;;;;;5015593;28;20026;-56
2023/06/08 09:50:13;;;;;;;16.23;14.55;;;20.80;99.90;;;;;;5015968;28;20030;-55
2023/06/08 09:53:00;;;;;;;15.18;13.77;;;20.90;99.90;;;;;;5015943;28;20471;-53
2023/06/08 09:55:47;;;;;;;14.10;12.75;;;20.90;98.50;;;;;;5026258;28;20065;-55
2023/06/08 09:58:35;;;;;;;14.35;12.63;;;20.90;99.20;;;;;;5034119;28;20061;-56
2023/06/08 10:01:41;;;;;;;15.93;13.80;;;21.10;99.30;;;;;;5034661;28;20017;-55
2023/06/08 10:04:31;;;;;;;15.98;14.27;;;21.40;98.60;;;;;;5035828;28;20021;-61
2023/06/08 10:07:24;;;;;;;14.70;13.18;;;21.60;98.90;;;;;;5034961;28;20552;-55
2023/06/08 10:10:15;;;;;;;13.70;12.40;;;21.80;98.60;;;;;;5035918;28;20038;-55
2023/06/08 10:13:01;;;;;;;14.63;12.02;;;21.80;96.50;;;;;;5036100;28;20041;-56
2023/06/08 10:15:48;;;;;;;12.23;11.00;;;21.60;96.70;;;;;;5037021;28;20036;-56
2023/06/08 10:18:35;;;;;;;12.23;11.10;;;21.70;95.20;;;;;;5034580;28;20035;-56
2023/06/08 10:21:21;;;;;;;12.52;10.15;;;21.80;94.50;;;;;;5021157;28;20033;-55
2023/06/08 10:24:09;;;;;;;12.75;10.48;;;21.60;93.60;;;;;;5013798;28;20398;-56
2023/06/08 10:27:33;;;;;;;12.15;10.48;;;21.50;92.70;;;;;;5013523;28;20375;-54
2023/06/08 10:30:30;;;;;;;11.32;10.02;;;21.20;92.60;;;;;;5019590;28;20029;-55
2023/06/08 10:33:24;;;;;;;13.70;10.13;;;21.40;93.20;;;;;;5028250;28;20515;-56
2023/06/08 10:36:10;;;;;;;13.50;11.30;;;21.50;93.70;;;;;;5016794;28;20455;-51
2023/06/08 10:38:59;;;;;;;12.75;11.45;;;21.50;94.30;;;;;;5014345;28;20089;-56
2023/06/08 10:41:59;;;;;;;11.98;10.48;;;21.30;95.10;;;;;;5013066;28;20029;-55
2023/06/08 10:44:56;;;;;;;13.95;11.82;;;21.30;94.70;;;;;;5014480;28;20025;-54
2023/06/08 10:47:42;;;;;;;13.13;11.75;;;21.30;94.60;;;;;;5021366;28;20387;-52
2023/06/08 10:50:30;;;;;;;12.88;11.57;;;21.20;95.60;;;;;;5033442;28;20104;-55
2023/06/08 10:53:18;;;;;;;13.63;12.23;;;21.40;95.50;;;;;;5032583;28;20076;-55
2023/06/08 10:56:04;;;;;;;14.32;12.23;;;21.30;96.00;;;;;;5033395;28;20052;-56
2023/06/08 10:58:51;;;;;;;13.10;11.80;;;21.50;96.10;;;;;;5033992;28;20383;-53
2023/06/08 11:01:37;;;;;;;14.55;13.07;;;21.60;96.50;;;;;;5030757;28;20029;-54
2023/06/08 11:04:27;;;;;;;13.05;11.85;;;21.60;96.80;;;;;;5012785;28;20034;-55
2023/06/08 11:07:12;;;;;;;13.52;12.20;;;21.60;96.90;;;;;;5012777;28;20029;-55
2023/06/08 11:10:01;;;;;;;15.05;12.85;;;21.50;96.50;;;;;;5012639;28;20069;-58
2023/06/08 11:12:47;;;;;;;13.43;12.13;;;21.50;96.70;;;;;;5011379;28;20030;-55
2023/06/08 11:15:45;;;;;;;11.90;10.75;;;21.60;96.50;;;;;;5025250;28;20033;-56
2023/06/08 11:18:32;;;;;;;12.48;10.85;;;21.70;95.50;;;;;;5032180;28;20091;-57
2023/06/08 11:21:23;;;;;;;12.63;10.40;;;21.70;94.50;;;;;;5032454;28;20461;-56
2023/06/08 11:24:09;;;;;;;12.27;10.45;;;21.80;94.30;;;;;;5032628;28;20024;-55
2023/06/08 11:27:00;;;;;;;11.80;10.70;;;21.90;94.50;;;;;;5027368;28;20532;-57
2023/06/08 11:29:46;;;;;;;15.13;12.18;;;22.00;94.40;;;;;;5013434;28;20033;-56
2023/06/08 11:32:35;;;;;;;14.25;11.63;;;21.90;94.40;;;;;;5021819;28;20026;-57
2023/06/08 11:35:21;;;;;;;13.35;11.25;;;22.00;94.60;;;;;;5032521;28;20033;-55
2023/06/08 11:38:07;;;;;;;12.73;11.40;;;22.30;94.50;;;;;;5030851;28;20057;-53
2023/06/08 11:40:57;;;;;;;18.63;16.55;;;22.50;94.40;;;;;;5028050;28;20038;-54
2023/06/08 11:43:48;;;;;;;13.10;11.50;;;22.50;94.10;;;;;;5012590;28;20376;-53
2023/06/08 11:46:35;;;;;;;12.15;10.98;;;22.80;93.90;;;;;;5017857;28;20029;-56
2023/06/08 11:49:21;;;;;;;15.27;12.60;;;23.00;94.10;;;;;;5030780;28;20563;-55
2023/06/08 11:52:09;;;;;;;15.57;11.23;;;23.30;93.80;;;;;;5013008;28;20558;-55
2023/06/08 11:55:03;;;;;;;12.60;10.45;;;23.40;93.50;;;;;;5028554;28;20041;-53
2023/06/08 11:57:55;;;;;;;12.60;9.87;;;23.50;93.00;;;;;;5028776;28;20088;-52
2023/06/08 12:00:41;;;;;;;14.35;10.68;;;23.60;92.80;;;;;;5013516;28;20588;-52
2023/06/08 12:03:32;;;;;;;11.65;8.90;;;23.80;92.70;;;;;;5013545;28;20101;-53
2023/06/08 12:06:24;;;;;;;12.38;9.90;;;24.00;92.80;;;;;;5012759;28;20030;-56
2023/06/08 12:09:10;;;;;;;11.07;9.90;;;24.20;92.50;;;;;;5028460;28;20182;-54
2023/06/08 12:11:56;;;;;;;13.45;10.38;;;24.40;92.30;;;;;;5041060;28;20117;-56
2023/06/08 12:14:44;;;;;;;13.95;10.43;;;24.60;92.10;;;;;;5026844;28;20045;-57
2023/06/08 12:17:30;;;;;;;14.23;10.80;;;24.70;91.50;;;;;;5032176;28;20037;-56
2023/06/08 12:20:17;;;;;;;12.80;10.80;;;24.80;90.70;;;;;;5021072;28;20026;-57
2023/06/08 12:23:04;;;;;;;11.07;9.98;;;24.70;90.20;;;;;;5031157;28;20080;-58
2023/06/08 12:25:51;;;;;;;13.38;12.07;;;24.50;90.30;;;;;;5027219;28;20025;-58
2023/06/08 12:28:38;;;;;;;12.45;11.15;;;24.60;90.10;;;;;;5026050;28;20034;-57
2023/06/08 12:31:23;;;;;;;13.65;11.02;;;24.70;90.10;;;;;;5014331;28;20026;-54
2023/06/08 12:34:09;;;;;;;10.50;9.43;;;24.80;90.00;;;;;;5031164;28;20029;-55
2023/06/08 12:36:55;;;;;;;11.95;10.05;;;25.10;90.30;;;;;;5030523;28;20109;-54
2023/06/08 12:39:42;;;;;;;18.10;10.13;;;25.60;90.30;;;;;;5012155;28;20457;-57
2023/06/08 12:42:28;;;;;;;11.05;9.73;;;25.90;90.00;;;;;;5014179;28;20026;-57
2023/06/08 12:45:14;;;;;;;11.38;10.27;;;26.20;89.30;;;;;;5032151;28;20021;-58
2023/06/08 12:47:59;;;;;;;19.63;10.00;;;26.50;88.90;;;;;;5046869;28;20060;-57
2023/06/08 12:50:46;;;;;;;10.13;9.07;;;26.80;86.80;;;;;;5029023;28;20041;-56
2023/06/08 12:53:31;;;;;;;12.43;9.95;;;27.00;86.10;;;;;;5032147;28;20025;-56
2023/06/08 12:56:18;;;;;;;11.30;9.27;;;26.90;84.60;;;;;;5016124;28;20026;-56
2023/06/08 12:59:03;;;;;;;12.20;10.10;;;26.60;84.90;;;;;;5019026;28;20026;-58
2023/06/08 13:01:49;;;;;;;10.57;9.57;;;26.40;85.90;;;;;;5027858;28;20072;-58
2023/06/08 13:04:35;;;;;;;12.07;9.82;;;26.30;83.50;;;;;;5029016;28;20025;-53
2023/06/08 13:07:22;;;;;;;11.05;9.90;;;26.20;84.60;;;;;;5032955;28;20112;-57
2023/06/08 13:10:08;;;;;;;10.55;9.55;;;26.20;85.20;;;;;;5023266;28;20025;-56
2023/06/08 13:12:54;;;;;;;12.13;10.48;;;26.30;85.70;;;;;;5020814;28;20033;-58
2023/06/08 13:15:40;;;;;;;12.60;9.73;;;26.20;85.40;;;;;;5017144;28;20491;-57
2023/06/08 13:18:26;;;;;;;13.27;9.60;;;26.30;84.90;;;;;;5018018;28;20041;-52
2023/06/08 13:21:11;;;;;;;11.45;9.05;;;26.30;84.40;;;;;;5034380;28;20021;-54
2023/06/08 13:24:03;;;;;;;11.70;10.48;;;26.50;84.30;;;;;;5018637;28;20026;-54
2023/06/08 13:26:51;;;;;;;11.48;9.98;;;26.60;85.40;;;;;;5020788;28;20057;-55
2023/06/08 13:29:40;;;;;;;13.52;9.52;;;26.50;84.80;;;;;;5018876;28;20037;-55
2023/06/08 13:32:28;;;;;;;10.93;9.68;;;26.30;84.10;;;;;;5033126;28;20106;-53
2023/06/08 13:35:14;;;;;;;11.65;10.45;;;26.20;85.00;;;;;;5023433;28;20101;-56
2023/06/08 13:38:00;;;;;;;13.60;10.43;;;26.00;85.40;;;;;;5015107;28;20516;-56
2023/06/08 13:40:50;;;;;;;11.25;9.88;;;25.90;86.10;;;;;;5023231;28;20022;-55
2023/06/08 13:43:36;;;;;;;12.32;10.93;;;25.80;85.90;;;;;;5032141;28;20032;-54
2023/06/08 13:46:22;;;;;;;12.05;10.15;;;25.70;86.00;;;;;;5031737;28;20034;-56
2023/06/08 13:49:08;;;;;;;12.05;10.52;;;25.50;86.80;;;;;;5032727;28;20033;-55
2023/06/08 13:51:55;;;;;;;10.30;9.30;;;25.50;86.20;;;;;;5034370;28;20447;-55
2023/06/08 13:54:41;;;;;;;11.25;10.07;;;25.50;86.30;;;;;;5033222;28;20088;-55
2023/06/08 13:57:28;;;;;;;10.35;9.20;;;25.50;86.50;;;;;;5026050;28;20489;-52
2023/06/08 14:00:14;;;;;;;18.55;10.38;;;25.50;86.50;;;;;;5028082;28;20026;-50
2023/06/08 14:03:01;;;;;;;14.02;10.15;;;25.60;86.30;;;;;;5015790;28;20029;-56
2023/06/08 14:05:47;;;;;;;13.95;11.57;;;25.60;85.60;;;;;;5032913;28;20109;-54
2023/06/08 14:08:33;;;;;;;13.10;11.27;;;25.60;86.10;;;;;;5032569;28;20037;-53
2023/06/08 14:11:19;;;;;;;17.58;10.88;;;25.50;86.60;;;;;;5016121;28;20034;-56